createdAt,value
2019-06-10T00:01:06.991Z,58.62
2019-06-10T00:03:36.515Z,58.76
2019-06-10T00:06:07.038Z,59.48
2019-06-10T00:08:37.511Z,59.92
2019-06-10T00:11:07.977Z,60.91
2019-06-10T00:13:38.344Z,60.49
2019-06-10T00:16:11.305Z,61.70
2019-06-10T00:18:45.138Z,61.65
2019-06-10T00:21:13.190Z,62.64
2019-06-10T00:23:43.664Z,67.60
2019-06-10T00:26:14.194Z,64.99
2019-06-10T00:28:44.618Z,61.03
2019-06-10T00:31:15.066Z,57.83
2019-06-10T00:33:45.468Z,54.66
2019-06-10T00:36:15.895Z,54.28
2019-06-10T00:38:46.292Z,55.05
2019-06-10T00:41:16.755Z,55.55
2019-06-10T00:43:47.179Z,56.95
2019-06-10T00:46:17.569Z,57.99
2019-06-10T00:48:48.054Z,59.09
2019-06-10T00:51:20.780Z,59.69
2019-06-10T00:53:51.362Z,60.57
2019-06-10T00:56:21.982Z,61.01
2019-06-10T00:58:52.369Z,61.93
2019-06-10T01:01:22.756Z,62.42
2019-06-10T01:03:53.341Z,64.61
2019-06-10T01:06:23.848Z,64.06
2019-06-10T01:08:54.260Z,61.73
2019-06-10T01:11:27.125Z,58.35
2019-06-10T01:13:56.707Z,55.56
2019-06-10T01:16:27.052Z,54.83
2019-06-10T01:18:57.443Z,55.30
2019-06-10T01:21:27.803Z,55.74
2019-06-10T01:23:58.231Z,56.40
2019-06-10T01:26:30.841Z,57.61
2019-06-10T01:29:01.067Z,58.30
2019-06-10T01:31:31.905Z,59.67
2019-06-10T01:34:02.345Z,60.37
2019-06-10T01:36:32.770Z,60.74
2019-06-10T01:39:03.550Z,61.50
2019-06-10T01:41:33.921Z,62.37
2019-06-10T01:44:04.400Z,67.67
2019-06-10T01:46:34.855Z,65.86
2019-06-10T01:49:05.336Z,63.22
2019-06-10T01:51:35.818Z,60.22
2019-06-10T01:54:07.362Z,57.72
2019-06-10T01:56:37.954Z,55.60
2019-06-10T01:59:10.968Z,55.24
2019-06-10T02:01:44.592Z,55.37
2019-06-10T02:04:16.570Z,56.13
2019-06-10T02:06:47.689Z,57.04
2019-06-10T02:09:18.817Z,57.94
2019-06-10T02:11:51.394Z,59.12
2019-06-10T02:14:24.241Z,60.31
2019-06-10T02:16:54.567Z,59.78
2019-06-10T02:19:25.033Z,60.32
2019-06-10T02:21:55.451Z,61.62
2019-06-10T02:24:25.999Z,62.70
2019-06-10T02:26:56.459Z,67.07
2019-06-10T02:29:26.868Z,64.58
2019-06-10T02:31:57.236Z,60.89
2019-06-10T02:34:28.622Z,56.78
2019-06-10T02:36:59.222Z,51.92
2019-06-10T02:39:35.048Z,50.16
2019-06-10T02:42:05.828Z,51.17
2019-06-10T02:44:37.675Z,52.56
2019-06-10T02:47:08.272Z,53.81
2019-06-10T02:49:55.720Z,54.52
2019-06-10T02:52:23.276Z,55.96
2019-06-10T02:54:53.585Z,57.08
2019-06-10T02:57:30.440Z,58.28
2019-06-10T02:59:56.404Z,57.91
2019-06-10T03:02:31.819Z,58.30
2019-06-10T03:04:58.877Z,58.75
2019-06-10T03:07:32.619Z,59.16
2019-06-10T03:10:04.517Z,60.01
2019-06-10T03:12:33.478Z,59.64
2019-06-10T03:15:05.187Z,59.86
2019-06-10T03:17:35.675Z,60.14
2019-06-10T03:20:07.605Z,60.20
2019-06-10T03:22:38.140Z,60.06
2019-06-10T03:25:10.187Z,60.26
2019-06-10T03:27:42.448Z,60.29
2019-06-10T03:30:17.198Z,59.86
2019-06-10T03:32:46.628Z,59.56
2019-06-10T03:35:17.363Z,59.38
2019-06-10T03:37:47.845Z,59.33
2019-06-10T03:40:18.545Z,59.34
2019-06-10T03:42:48.957Z,59.33
2019-06-10T03:45:19.339Z,58.59
2019-06-10T03:47:49.705Z,58.36
2019-06-10T03:50:21.897Z,58.37
2019-06-10T03:52:52.514Z,58.23
2019-06-10T03:55:25.011Z,58.02
2019-06-10T03:57:54.991Z,57.69
2019-06-10T04:00:27.192Z,58.31
2019-06-10T04:02:57.460Z,58.56
2019-06-10T04:05:28.863Z,58.77
2019-06-10T04:08:02.003Z,58.58
2019-06-10T04:10:32.456Z,58.79
2019-06-10T04:13:02.989Z,59.07
2019-06-10T04:15:33.641Z,59.30
2019-06-10T04:18:04.152Z,59.48
2019-06-10T04:20:34.610Z,59.19
2019-06-10T04:23:05.008Z,59.04
2019-06-10T04:25:36.442Z,58.88
2019-06-10T04:28:06.803Z,58.87
2019-06-10T04:30:37.275Z,58.72
2019-06-10T04:33:07.695Z,58.46
2019-06-10T04:35:38.098Z,58.38
2019-06-10T04:38:08.472Z,58.12
2019-06-10T04:40:38.888Z,58.21
2019-06-10T04:43:09.281Z,58.33
2019-06-10T04:45:39.666Z,58.24
2019-06-10T04:48:12.300Z,57.81
2019-06-10T04:50:46.208Z,57.90
2019-06-10T04:53:14.275Z,57.47
2019-06-10T04:55:44.751Z,57.00
2019-06-10T04:58:15.143Z,56.94
2019-06-10T05:00:45.999Z,56.77
2019-06-10T05:03:16.580Z,56.79
2019-06-10T05:05:47.520Z,56.83
2019-06-10T05:08:18.999Z,56.58
2019-06-10T05:10:49.428Z,56.92
2019-06-10T05:13:19.819Z,56.52
2019-06-10T05:15:52.583Z,56.21
2019-06-10T05:18:24.237Z,56.04
2019-06-10T05:20:58.548Z,55.51
2019-06-10T05:23:27.895Z,55.64
2019-06-10T05:25:58.514Z,55.83
2019-06-10T05:28:30.014Z,55.54
2019-06-10T05:31:02.759Z,55.12
2019-06-10T05:33:33.499Z,54.87
2019-06-10T05:36:04.730Z,53.87
2019-06-10T05:38:35.484Z,53.16
2019-06-10T05:41:07.049Z,52.70
2019-06-10T05:43:37.490Z,52.71
2019-06-10T05:46:08.059Z,52.57
2019-06-10T05:48:38.529Z,53.21
2019-06-10T05:51:08.917Z,52.90
2019-06-10T05:53:39.308Z,52.89
2019-06-10T05:56:09.866Z,53.55
2019-06-10T05:58:40.274Z,52.98
2019-06-10T06:01:12.967Z,51.97
2019-06-10T06:03:43.913Z,51.29
2019-06-10T06:06:14.926Z,50.80
2019-06-10T06:08:45.426Z,51.16
2019-06-10T06:11:15.861Z,51.12
2019-06-10T06:13:46.357Z,50.81
2019-06-10T06:16:16.850Z,50.79
2019-06-10T06:18:47.336Z,50.54
2019-06-10T06:21:25.470Z,48.21
2019-06-10T06:23:52.608Z,46.83
2019-06-10T06:26:23.608Z,46.56
2019-06-10T06:28:54.536Z,46.14
2019-06-10T06:31:26.170Z,46.03
2019-06-10T06:33:57.103Z,46.03
2019-06-10T06:36:28.638Z,45.29
2019-06-10T06:38:59.115Z,45.13
2019-06-10T06:41:29.641Z,44.38
2019-06-10T06:44:02.159Z,44.44
2019-06-10T06:46:35.011Z,44.66
2019-06-10T06:49:04.308Z,45.03
2019-06-10T06:51:47.388Z,44.88
2019-06-10T06:54:06.990Z,44.64
2019-06-10T06:56:38.996Z,43.69
2019-06-10T06:59:09.822Z,43.93
2019-06-10T07:01:44.103Z,43.87
2019-06-10T07:04:13.490Z,43.67
2019-06-10T07:06:44.565Z,43.43
2019-06-10T07:09:14.950Z,43.37
2019-06-10T07:11:45.589Z,43.37
2019-06-10T07:14:16.911Z,42.58
2019-06-10T07:16:47.439Z,42.88
2019-06-10T07:19:17.821Z,41.15
2019-06-10T07:22:07.456Z,40.85
2019-06-10T07:24:20.329Z,39.57
2019-06-10T07:26:54.677Z,40.81
2019-06-10T07:29:23.057Z,39.98
2019-06-10T07:31:53.916Z,39.73
2019-06-10T07:34:24.397Z,39.74
2019-06-10T07:36:54.982Z,39.41
2019-06-10T07:39:25.480Z,39.46
2019-06-10T07:41:56.881Z,39.87
2019-06-10T07:44:27.375Z,39.68
2019-06-10T07:46:58.763Z,40.20
2019-06-10T07:49:29.286Z,39.47
2019-06-10T07:52:14.887Z,39.86
2019-06-10T07:54:33.243Z,38.48
2019-06-10T07:57:04.381Z,39.23
2019-06-10T07:59:35.413Z,39.60
2019-06-10T08:02:05.992Z,39.00
2019-06-10T08:04:38.049Z,38.15
2019-06-10T08:07:08.711Z,38.43
2019-06-10T08:09:39.205Z,38.20
2019-06-10T08:12:09.712Z,38.21
2019-06-10T08:14:42.245Z,36.84
2019-06-10T08:17:12.918Z,37.27
2019-06-10T08:19:48.853Z,37.57
2019-06-10T08:22:29.820Z,37.09
2019-06-10T08:24:48.136Z,36.94
2019-06-10T08:27:19.105Z,36.62
2019-06-10T08:29:58.552Z,35.95
2019-06-10T08:32:24.502Z,35.99
2019-06-10T08:34:54.225Z,35.65
2019-06-10T08:37:24.689Z,36.73
2019-06-10T08:39:55.252Z,36.67
2019-06-10T08:42:25.804Z,37.13
2019-06-10T08:44:59.707Z,37.27
2019-06-10T08:47:28.588Z,37.08
2019-06-10T08:49:59.089Z,37.81
2019-06-10T08:52:29.638Z,38.51
2019-06-10T08:55:03.147Z,38.17
2019-06-10T08:57:33.512Z,38.27
2019-06-10T09:00:12.507Z,38.20
2019-06-10T09:02:41.065Z,38.28
2019-06-10T09:05:17.670Z,38.77
2019-06-10T09:07:51.256Z,38.83
2019-06-10T09:10:22.633Z,40.11
2019-06-10T09:12:54.672Z,40.55
2019-06-10T09:15:25.326Z,40.50
2019-06-10T09:17:56.212Z,40.54
2019-06-10T09:20:27.184Z,41.54
2019-06-10T09:23:16.830Z,41.24
2019-06-10T09:25:33.310Z,40.77
2019-06-10T09:28:03.037Z,41.74
2019-06-10T09:30:33.555Z,41.20
2019-06-10T09:33:04.836Z,41.34
2019-06-10T09:35:35.612Z,41.34
2019-06-10T09:38:06.210Z,41.80
2019-06-10T09:40:59.017Z,41.98
2019-06-10T09:43:23.293Z,41.85
2019-06-10T09:45:56.379Z,42.19
2019-06-10T09:48:26.101Z,42.30
2019-06-10T09:50:58.800Z,41.73
2019-06-10T09:53:34.992Z,42.30
2019-06-10T09:56:04.102Z,43.16
2019-06-10T09:58:33.521Z,43.43
2019-06-10T10:01:04.828Z,43.88
2019-06-10T10:03:35.420Z,44.47
2019-06-10T10:06:13.997Z,45.17
2019-06-10T10:08:38.072Z,45.61
2019-06-10T10:11:08.726Z,45.64
2019-06-10T10:13:39.344Z,45.69
2019-06-10T10:16:09.825Z,45.84
2019-06-10T10:18:42.516Z,45.88
2019-06-10T10:21:13.033Z,46.14
2019-06-10T10:23:53.981Z,47.08
2019-06-10T10:26:16.129Z,47.32
2019-06-10T10:28:49.913Z,47.77
2019-06-10T10:31:18.703Z,47.39
2019-06-10T10:33:50.462Z,47.71
2019-06-10T10:36:22.572Z,46.82
2019-06-10T10:38:53.586Z,46.79
2019-06-10T10:41:24.216Z,46.37
2019-06-10T10:43:57.809Z,46.98
2019-06-10T10:46:27.155Z,47.49
2019-06-10T10:48:57.835Z,46.82
2019-06-10T10:51:28.171Z,46.67
2019-06-10T10:54:28.487Z,46.38
2019-06-10T10:56:33.386Z,47.08
2019-06-10T10:59:03.477Z,46.25
2019-06-10T11:01:35.029Z,46.32
2019-06-10T11:04:05.779Z,46.72
2019-06-10T11:06:37.866Z,47.23
2019-06-10T11:09:09.599Z,45.62
2019-06-10T11:11:43.641Z,45.51
2019-06-10T11:14:15.003Z,44.85
2019-06-10T11:16:45.527Z,44.73
2019-06-10T11:19:16.230Z,44.74
2019-06-10T11:21:47.421Z,44.88
2019-06-10T11:24:32.864Z,45.05
2019-06-10T11:26:53.193Z,44.33
2019-06-10T11:29:23.095Z,44.68
2019-06-10T11:31:55.699Z,44.98
2019-06-10T11:34:26.548Z,44.39
2019-06-10T11:36:58.178Z,44.54
2019-06-10T11:39:28.788Z,45.00
2019-06-10T11:41:59.159Z,44.66
2019-06-10T11:44:30.057Z,44.57
2019-06-10T11:47:07.320Z,45.40
2019-06-10T11:49:37.869Z,44.39
2019-06-10T11:52:12.439Z,45.06
2019-06-10T11:54:55.705Z,44.76
2019-06-10T11:57:14.171Z,45.11
2019-06-10T11:59:44.594Z,44.35
2019-06-10T12:02:15.050Z,43.20
2019-06-10T12:04:45.656Z,43.55
2019-06-10T12:07:16.387Z,44.16
2019-06-10T12:09:46.942Z,43.99
2019-06-10T12:12:17.475Z,43.54
2019-06-10T12:14:49.281Z,42.87
2019-06-10T12:17:35.233Z,43.24
2019-06-10T12:19:55.606Z,43.75
2019-06-10T12:22:24.577Z,43.52
2019-06-10T12:25:21.084Z,43.97
2019-06-10T12:27:27.219Z,43.42
2019-06-10T12:30:00.263Z,42.75
2019-06-10T12:32:33.013Z,43.34
2019-06-10T12:35:05.343Z,42.74
2019-06-10T12:37:36.253Z,42.31
2019-06-10T12:40:12.786Z,41.75
2019-06-10T12:42:43.099Z,41.45
2019-06-10T12:45:13.859Z,42.07
2019-06-10T12:47:44.400Z,41.57
2019-06-10T12:50:14.978Z,40.79
2019-06-10T12:52:45.347Z,40.88
2019-06-10T12:55:15.897Z,40.51
2019-06-10T12:57:46.383Z,40.55
2019-06-10T13:00:23.255Z,40.76
2019-06-10T13:02:53.023Z,40.18
2019-06-10T13:05:23.033Z,40.10
2019-06-10T13:07:53.776Z,40.66
2019-06-10T13:10:42.927Z,40.25
2019-06-10T13:13:13.521Z,40.18
2019-06-10T13:15:43.978Z,40.13
2019-06-10T13:18:19.164Z,39.62
2019-06-10T13:20:46.438Z,39.59
2019-06-10T13:23:23.849Z,39.86
2019-06-10T13:25:55.347Z,39.38
2019-06-10T13:28:22.265Z,39.31
2019-06-10T13:30:54.485Z,38.89
2019-06-10T13:33:25.016Z,39.17
2019-06-10T13:35:56.695Z,38.89
2019-06-10T13:38:27.619Z,38.79
2019-06-10T13:40:59.476Z,38.76
2019-06-10T13:43:33.044Z,38.61
2019-06-10T13:46:03.107Z,38.71
2019-06-10T13:48:34.281Z,38.21
2019-06-10T13:51:09.120Z,38.58
2019-06-10T13:53:36.953Z,38.68
2019-06-10T13:56:34.697Z,38.57
2019-06-10T13:58:45.031Z,38.34
2019-06-10T14:01:20.761Z,38.43
2019-06-10T14:03:44.184Z,38.11
2019-06-10T14:06:32.583Z,37.14
2019-06-10T14:08:47.018Z,36.74
2019-06-10T14:11:18.968Z,37.20
2019-06-10T14:13:52.428Z,37.47
2019-06-10T14:16:23.424Z,37.54
2019-06-10T14:18:54.396Z,37.73
2019-06-10T14:21:24.916Z,37.56
2019-06-10T14:23:55.341Z,37.74
2019-06-10T14:26:39.858Z,37.72
2019-06-10T14:28:58.148Z,37.55
2019-06-10T14:31:42.848Z,36.51
2019-06-10T14:34:00.771Z,37.32
2019-06-10T14:36:32.541Z,37.02
2019-06-10T14:39:06.029Z,36.82
2019-06-10T14:41:36.573Z,36.31
2019-06-10T14:44:08.603Z,35.61
2019-06-10T14:46:39.248Z,36.32
2019-06-10T14:49:10.853Z,35.22
2019-06-10T14:51:43.107Z,35.56
2019-06-10T14:54:18.022Z,35.71
2019-06-10T14:56:53.623Z,35.41
2019-06-10T14:59:22.301Z,34.91
2019-06-10T15:01:52.274Z,34.86
2019-06-10T15:04:23.056Z,34.15
2019-06-10T15:06:53.934Z,33.71
2019-06-10T15:09:24.402Z,33.66
2019-06-10T15:11:54.963Z,33.73
2019-06-10T15:14:25.403Z,33.48
2019-06-10T15:16:55.899Z,33.63
2019-06-10T15:19:29.033Z,33.69
2019-06-10T15:21:58.413Z,33.57
2019-06-10T15:24:28.784Z,33.60
2019-06-10T15:27:11.937Z,33.69
2019-06-10T15:29:32.856Z,33.65
2019-06-10T15:32:14.643Z,33.31
2019-06-10T15:34:36.465Z,33.17
2019-06-10T15:37:06.945Z,33.36
2019-06-10T15:39:37.347Z,33.35
2019-06-10T15:42:07.741Z,33.37
2019-06-10T15:44:48.598Z,33.18
2019-06-10T15:47:13.865Z,32.88
2019-06-10T15:49:42.313Z,33.38
2019-06-10T15:52:13.916Z,32.82
2019-06-10T15:54:44.798Z,32.69
2019-06-10T15:57:31.780Z,32.75
2019-06-10T15:59:47.330Z,32.69
2019-06-10T16:02:19.467Z,33.20
2019-06-10T16:04:52.442Z,34.19
2019-06-10T16:07:25.364Z,34.27
2019-06-10T16:09:54.340Z,35.15
2019-06-10T16:12:26.794Z,35.63
2019-06-10T16:14:56.949Z,36.41
2019-06-10T16:17:30.073Z,37.21
2019-06-10T16:19:59.438Z,37.87
2019-06-10T16:22:29.893Z,38.64
2019-06-10T16:25:00.258Z,38.53
2019-06-10T16:27:46.294Z,38.99
2019-06-10T16:30:02.938Z,39.57
2019-06-10T16:32:33.329Z,39.65
2019-06-10T16:35:05.741Z,40.29
2019-06-10T16:37:36.198Z,40.85
2019-06-10T16:40:07.001Z,41.01
2019-06-10T16:42:37.424Z,41.26
2019-06-10T16:45:07.779Z,41.74
2019-06-10T16:47:38.317Z,42.19
2019-06-10T16:50:09.310Z,42.46
2019-06-10T16:52:42.946Z,42.34
2019-06-10T16:55:12.745Z,42.66
2019-06-10T16:57:58.396Z,42.47
2019-06-10T17:00:15.505Z,42.81
2019-06-10T17:02:46.169Z,42.81
2019-06-10T17:05:16.648Z,42.84
2019-06-10T17:07:47.522Z,43.28
2019-06-10T17:10:17.900Z,43.52
2019-06-10T17:12:49.954Z,43.56
2019-06-10T17:15:21.088Z,44.13
2019-06-10T17:17:52.200Z,44.16
2019-06-10T17:20:23.614Z,44.56
2019-06-10T17:22:54.778Z,44.70
2019-06-10T17:25:26.557Z,45.08
2019-06-10T17:27:57.361Z,44.93
2019-06-10T17:30:28.502Z,45.07
2019-06-10T17:32:59.562Z,45.46
2019-06-10T17:35:32.959Z,45.73
2019-06-10T17:38:02.821Z,46.01
2019-06-10T17:40:33.725Z,46.19
2019-06-10T17:43:04.349Z,46.49
2019-06-10T17:45:34.896Z,46.88
2019-06-10T17:48:05.306Z,46.77
2019-06-10T17:50:35.695Z,47.28
2019-06-10T17:53:06.140Z,47.11
2019-06-10T17:55:36.524Z,47.38
2019-06-10T17:58:06.961Z,47.28
2019-06-10T18:00:37.357Z,47.81
2019-06-10T18:03:08.033Z,47.88
2019-06-10T18:05:38.566Z,47.99
2019-06-10T18:08:09.039Z,48.04
2019-06-10T18:10:39.577Z,48.10
2019-06-10T18:13:16.414Z,48.25
2019-06-10T18:15:42.350Z,48.27
2019-06-10T18:18:13.032Z,48.67
2019-06-10T18:20:44.355Z,48.76
2019-06-10T18:23:14.863Z,48.99
2019-06-10T18:25:45.263Z,49.11
2019-06-10T18:28:15.708Z,49.23
2019-06-10T18:30:46.545Z,49.40
2019-06-10T18:33:16.937Z,49.56
2019-06-10T18:35:47.373Z,49.94
2019-06-10T18:38:17.925Z,49.65
2019-06-10T18:40:48.331Z,50.12
2019-06-10T18:43:18.724Z,50.39
2019-06-10T18:45:49.148Z,50.69
2019-06-10T18:48:19.572Z,50.96
2019-06-10T18:50:52.555Z,51.25
2019-06-10T18:53:23.428Z,51.37
2019-06-10T18:55:54.975Z,51.94
2019-06-10T18:58:25.528Z,52.13
2019-06-10T19:01:03.921Z,52.28
2019-06-10T19:03:28.698Z,52.69
2019-06-10T19:05:59.166Z,53.05
2019-06-10T19:08:29.555Z,53.10
2019-06-10T19:11:02.358Z,53.40
2019-06-10T19:13:35.266Z,53.58
2019-06-10T19:16:04.313Z,54.00
2019-06-10T19:18:36.036Z,54.15
2019-06-10T19:21:08.843Z,54.63
2019-06-10T19:23:39.756Z,54.48
2019-06-10T19:26:13.852Z,54.99
2019-06-10T19:29:03.731Z,54.91
2019-06-10T19:31:36.239Z,55.43
2019-06-10T19:34:06.086Z,55.51
2019-06-10T19:36:37.669Z,55.56
2019-06-10T19:39:08.300Z,55.88
2019-06-10T19:41:40.657Z,55.79
2019-06-10T19:44:12.967Z,56.46
2019-06-10T19:46:43.159Z,56.77
2019-06-10T19:49:13.750Z,56.73
2019-06-10T19:51:46.591Z,57.53
2019-06-10T19:54:16.337Z,57.29
2019-06-10T19:56:46.916Z,57.54
2019-06-10T19:59:17.291Z,57.70
2019-06-10T20:01:48.841Z,57.96
2019-06-10T20:04:19.350Z,57.96
2019-06-10T20:06:50.819Z,58.30
2019-06-10T20:09:22.658Z,57.97
2019-06-10T20:11:53.242Z,58.68
2019-06-10T20:14:23.770Z,58.68
2019-06-10T20:16:54.175Z,58.80
2019-06-10T20:19:24.622Z,58.86
2019-06-10T20:21:55.190Z,59.44
2019-06-10T20:24:25.689Z,59.39
2019-06-10T20:26:56.078Z,59.53
2019-06-10T20:29:26.465Z,59.49
2019-06-10T20:31:56.886Z,59.79
2019-06-10T20:34:28.139Z,60.11
2019-06-10T20:36:58.723Z,60.35
2019-06-10T20:39:29.682Z,60.44
2019-06-10T20:42:02.716Z,60.68
2019-06-10T20:44:32.692Z,60.91
2019-06-10T20:47:03.296Z,60.99
2019-06-10T20:49:33.761Z,60.87
2019-06-10T20:52:11.151Z,61.09
2019-06-10T20:54:36.530Z,61.36
2019-06-10T20:57:07.029Z,61.97
2019-06-10T20:59:39.067Z,61.57
2019-06-10T21:02:09.636Z,61.88
2019-06-10T21:04:41.697Z,62.18
2019-06-10T21:07:13.232Z,62.14
2019-06-10T21:09:44.434Z,62.34
2019-06-10T21:12:16.021Z,62.65
2019-06-10T21:14:47.221Z,64.75
2019-06-10T21:17:18.569Z,62.87
2019-06-10T21:19:49.213Z,60.24
2019-06-10T21:22:19.579Z,58.25
2019-06-10T21:24:51.350Z,56.22
2019-06-10T21:27:23.868Z,55.65
2019-06-10T21:29:54.908Z,56.24
2019-06-10T21:32:25.329Z,56.99
2019-06-10T21:34:55.791Z,57.71
2019-06-10T21:37:26.283Z,58.90
2019-06-10T21:39:56.695Z,59.85
2019-06-10T21:42:27.275Z,60.36
2019-06-10T21:44:57.645Z,61.40
2019-06-10T21:47:28.045Z,61.81
2019-06-10T21:49:58.432Z,62.10
2019-06-10T21:52:28.978Z,65.09
2019-06-10T21:54:59.361Z,63.35
2019-06-10T21:57:29.836Z,60.95
2019-06-10T22:00:02.388Z,58.29
2019-06-10T22:02:32.464Z,56.19
2019-06-10T22:05:03.456Z,56.28
2019-06-10T22:07:33.988Z,57.11
2019-06-10T22:10:08.015Z,57.99
2019-06-10T22:12:38.515Z,59.71
2019-06-10T22:15:12.483Z,60.33
2019-06-10T22:17:44.213Z,61.50
2019-06-10T22:20:14.724Z,62.01
2019-06-10T22:22:46.490Z,62.27
2019-06-10T22:25:17.081Z,65.05
2019-06-10T22:27:47.879Z,63.69
2019-06-10T22:30:18.293Z,61.40
2019-06-10T22:32:52.672Z,59.60
2019-06-10T22:35:23.038Z,57.49
2019-06-10T22:37:55.426Z,56.86
2019-06-10T22:40:26.113Z,57.49
2019-06-10T22:42:56.856Z,58.62
2019-06-10T22:45:27.206Z,59.55
2019-06-10T22:47:58.466Z,60.62
2019-06-10T22:50:28.885Z,61.48
2019-06-10T22:52:59.702Z,62.46
2019-06-10T22:55:32.226Z,64.50
2019-06-10T22:58:05.804Z,63.66
2019-06-10T23:00:34.446Z,61.41
2019-06-10T23:03:04.933Z,59.17
2019-06-10T23:05:35.367Z,57.45
2019-06-10T23:08:05.782Z,57.46
2019-06-10T23:10:37.255Z,58.44
2019-06-10T23:13:07.835Z,59.50
2019-06-10T23:15:38.384Z,60.98
2019-06-10T23:18:08.904Z,62.23
2019-06-10T23:20:39.508Z,65.59
2019-06-10T23:23:12.663Z,64.54
2019-06-10T23:25:43.160Z,62.66
2019-06-10T23:28:13.616Z,60.85
2019-06-10T23:30:44.918Z,59.63
2019-06-10T23:33:15.525Z,58.80
2019-06-10T23:35:47.684Z,57.45
2019-06-10T23:38:18.251Z,57.92
2019-06-10T23:40:48.621Z,59.22
2019-06-10T23:43:19.023Z,60.40
2019-06-10T23:45:49.388Z,62.62
2019-06-10T23:48:22.558Z,65.45
2019-06-10T23:50:53.828Z,64.40
2019-06-10T23:53:24.185Z,62.76
2019-06-10T23:55:55.175Z,61.64
2019-06-10T23:58:26.685Z,60.18
